Terminal Aerodrome Forecast
Issued by NWS Cleveland, OH

Home | Current Version | Previous Version | Graphics & Text | Print | Product List | Glossary On
Versions: 1 2 3 4 5 6 7 8 9 10 11 12 13 14
000
FTUS41 KCLE 202300
TAFCAK
TAF
KCAK 202337Z 2100/2124 01008KT P6SM SCT035 OVC200
     FM210100 VRB04KT P6SM SCT040 OVC120
     FM210600 03004KT P6SM VCSH OVC050
     FM211000 03004KT P6SM OVC050
     FM211600 35006KT P6SM SCT050 OVC100
     FM212300 29008KT P6SM OVC100=

USA.gov is the U.S. government's official web portal to all federal, state and local government web resources and services.